sensor_id;sensor_type;location;lat;lon;timestamp;pressure;altitude;pressure_sealevel;temperature
62930;BMP280;49036;42.782;23.108;2023-05-10T00:00:37;94218.38;;;7.41
62930;BMP280;49036;42.782;23.108;2023-05-10T00:03:02;94213.78;;;7.44
62930;BMP280;49036;42.782;23.108;2023-05-10T00:05:30;94207.16;;;7.39
62930;BMP280;49036;42.782;23.108;2023-05-10T00:07:55;94208.81;;;7.35
62930;BMP280;49036;42.782;23.108;2023-05-10T00:10:21;94204.03;;;7.35
62930;BMP280;49036;42.782;23.108;2023-05-10T00:12:47;94201.28;;;7.35
62930;BMP280;49036;42.782;23.108;2023-05-10T00:15:12;94202.59;;;7.34
62930;BMP280;49036;42.782;23.108;2023-05-10T00:17:38;94198.00;;;7.29
62930;BMP280;49036;42.782;23.108;2023-05-10T00:20:03;94197.66;;;7.25
62930;BMP280;49036;42.782;23.108;2023-05-10T00:22:30;94191.59;;;7.26
62930;BMP280;49036;42.782;23.108;2023-05-10T00:24:57;94198.75;;;7.29
62930;BMP280;49036;42.782;23.108;2023-05-10T00:27:22;94194.34;;;7.26
62930;BMP280;49036;42.782;23.108;2023-05-10T00:29:48;94188.66;;;7.24
62930;BMP280;49036;42.782;23.108;2023-05-10T00:32:14;94187.75;;;7.22
62930;BMP280;49036;42.782;23.108;2023-05-10T00:34:39;94195.69;;;7.18
62930;BMP280;49036;42.782;23.108;2023-05-10T00:37:05;94190.34;;;7.20
62930;BMP280;49036;42.782;23.108;2023-05-10T00:39:31;94195.69;;;7.18
62930;BMP280;49036;42.782;23.108;2023-05-10T00:41:56;94189.44;;;7.17
62930;BMP280;49036;42.782;23.108;2023-05-10T00:44:22;94179.34;;;7.12
62930;BMP280;49036;42.782;23.108;2023-05-10T00:46:48;94182.31;;;7.07
62930;BMP280;49036;42.782;23.108;2023-05-10T00:49:14;94192.03;;;7.08
62930;BMP280;49036;42.782;23.108;2023-05-10T00:51:39;94183.94;;;7.10
62930;BMP280;49036;42.782;23.108;2023-05-10T00:54:09;94185.06;;;7.07
62930;BMP280;49036;42.782;23.108;2023-05-10T00:56:35;94182.47;;;7.09
62930;BMP280;49036;42.782;23.108;2023-05-10T00:59:01;94180.28;;;7.07
62930;BMP280;49036;42.782;23.108;2023-05-10T01:01:28;94186.16;;;7.04
62930;BMP280;49036;42.782;23.108;2023-05-10T01:03:54;94187.66;;;7.05
62930;BMP280;49036;42.782;23.108;2023-05-10T01:06:20;94182.13;;;7.05
62930;BMP280;49036;42.782;23.108;2023-05-10T01:08:46;94177.13;;;7.03
62930;BMP280;49036;42.782;23.108;2023-05-10T01:11:12;94179.75;;;7.01
62930;BMP280;49036;42.782;23.108;2023-05-10T01:13:39;94164.31;;;6.98
62930;BMP280;49036;42.782;23.108;2023-05-10T01:16:06;94169.28;;;6.92
62930;BMP280;49036;42.782;23.108;2023-05-10T01:18:38;94172.97;;;6.94
62930;BMP280;49036;42.782;23.108;2023-05-10T01:29:53;94166.56;;;6.84
62930;BMP280;49036;42.782;23.108;2023-05-10T01:37:52;94153.19;;;6.73
62930;BMP280;49036;42.782;23.108;2023-05-10T01:43:30;94155.44;;;6.67
62930;BMP280;49036;42.782;23.108;2023-05-10T01:46:08;94152.13;;;6.68
62930;BMP280;49036;42.782;23.108;2023-05-10T01:48:51;94153.19;;;6.65
62930;BMP280;49036;42.782;23.108;2023-05-10T01:51:22;94156.34;;;6.62
62930;BMP280;49036;42.782;23.108;2023-05-10T01:53:49;94151.91;;;6.59
62930;BMP280;49036;42.782;23.108;2023-05-10T01:56:19;94155.97;;;6.58
62930;BMP280;49036;42.782;23.108;2023-05-10T01:58:48;94151.78;;;6.57
62930;BMP280;49036;42.782;23.108;2023-05-10T02:01:16;94157.28;;;6.57
62930;BMP280;49036;42.782;23.108;2023-05-10T02:03:43;94144.63;;;6.54
62930;BMP280;49036;42.782;23.108;2023-05-10T02:06:10;94154.34;;;6.55
62930;BMP280;49036;42.782;23.108;2023-05-10T02:08:36;94151.94;;;6.51
62930;BMP280;49036;42.782;23.108;2023-05-10T02:11:03;94154.38;;;6.47
62930;BMP280;49036;42.782;23.108;2023-05-10T02:13:31;94147.38;;;6.46
62930;BMP280;49036;42.782;23.108;2023-05-10T02:15:59;94153.06;;;6.48
62930;BMP280;49036;42.782;23.108;2023-05-10T02:18:25;94150.88;;;6.47
62930;BMP280;49036;42.782;23.108;2023-05-10T02:20:53;94139.50;;;6.43
62930;BMP280;49036;42.782;23.108;2023-05-10T02:23:20;94145.00;;;6.43
62930;BMP280;49036;42.782;23.108;2023-05-10T02:25:48;94148.50;;;6.43
62930;BMP280;49036;42.782;23.108;2023-05-10T02:28:14;94140.78;;;6.42
62930;BMP280;49036;42.782;23.108;2023-05-10T02:30:41;94133.06;;;6.40
62930;BMP280;49036;42.782;23.108;2023-05-10T02:33:08;94136.00;;;6.34
62930;BMP280;49036;42.782;23.108;2023-05-10T02:35:34;94141.34;;;6.32
62930;BMP280;49036;42.782;23.108;2023-05-10T02:38:01;94139.69;;;6.29
62930;BMP280;49036;42.782;23.108;2023-05-10T02:40:27;94148.53;;;6.28
62930;BMP280;49036;42.782;23.108;2023-05-10T02:42:56;94145.78;;;6.28
62930;BMP280;49036;42.782;23.108;2023-05-10T02:45:25;94145.56;;;6.26
62930;BMP280;49036;42.782;23.108;2023-05-10T02:47:52;94148.16;;;6.24
62930;BMP280;49036;42.782;23.108;2023-05-10T02:50:18;94147.41;;;6.23
62930;BMP280;49036;42.782;23.108;2023-05-10T02:52:50;94144.31;;;6.19
62930;BMP280;49036;42.782;23.108;2023-05-10T02:55:19;94148.91;;;6.17
62930;BMP280;49036;42.782;23.108;2023-05-10T02:57:51;94143.94;;;6.15
62930;BMP280;49036;42.782;23.108;2023-05-10T03:00:17;94150.00;;;6.14
62930;BMP280;49036;42.782;23.108;2023-05-10T03:02:43;94143.56;;;6.11
62930;BMP280;49036;42.782;23.108;2023-05-10T03:05:09;94139.38;;;6.10
62930;BMP280;49036;42.782;23.108;2023-05-10T03:07:34;94145.44;;;6.08
62930;BMP280;49036;42.782;23.108;2023-05-10T03:10:00;94150.22;;;6.08
62930;BMP280;49036;42.782;23.108;2023-05-10T03:18:15;94144.50;;;5.98
62930;BMP280;49036;42.782;23.108;2023-05-10T03:20:43;94155.88;;;5.95
62930;BMP280;49036;42.782;23.108;2023-05-10T03:23:20;94151.09;;;5.88
62930;BMP280;49036;42.782;23.108;2023-05-10T03:25:48;94162.50;;;5.76
62930;BMP280;49036;42.782;23.108;2023-05-10T03:28:14;94161.75;;;5.68
62930;BMP280;49036;42.782;23.108;2023-05-10T03:30:41;94158.25;;;5.60
62930;BMP280;49036;42.782;23.108;2023-05-10T03:33:08;94164.69;;;5.55
62930;BMP280;49036;42.782;23.108;2023-05-10T03:35:34;94163.38;;;5.48
62930;BMP280;49036;42.782;23.108;2023-05-10T03:38:00;94162.81;;;5.42
62930;BMP280;49036;42.782;23.108;2023-05-10T03:40:26;94172.16;;;5.39
62930;BMP280;49036;42.782;23.108;2023-05-10T03:42:54;94170.50;;;5.36
62930;BMP280;49036;42.782;23.108;2023-05-10T03:45:20;94166.66;;;5.32
62930;BMP280;49036;42.782;23.108;2023-05-10T03:47:45;94171.78;;;5.28
62930;BMP280;49036;42.782;23.108;2023-05-10T03:50:11;94171.03;;;5.27
62930;BMP280;49036;42.782;23.108;2023-05-10T03:52:36;94178.00;;;5.28
62930;BMP280;49036;42.782;23.108;2023-05-10T03:55:05;94176.19;;;5.31
62930;BMP280;49036;42.782;23.108;2023-05-10T03:57:30;94178.41;;;5.32
62930;BMP280;49036;42.782;23.108;2023-05-10T03:59:56;94174.91;;;5.32
62930;BMP280;49036;42.782;23.108;2023-05-10T04:02:21;94178.00;;;5.36
62930;BMP280;49036;42.782;23.108;2023-05-10T04:04:47;94176.72;;;5.37
62930;BMP280;49036;42.782;23.108;2023-05-10T04:07:13;94176.72;;;5.37
62930;BMP280;49036;42.782;23.108;2023-05-10T04:09:39;94180.97;;;5.38
62930;BMP280;49036;42.782;23.108;2023-05-10T04:12:04;94184.66;;;5.40
62930;BMP280;49036;42.782;23.108;2023-05-10T04:14:30;94183.53;;;5.43
62930;BMP280;49036;42.782;23.108;2023-05-10T04:16:56;94181.34;;;5.42
62930;BMP280;49036;42.782;23.108;2023-05-10T04:19:21;94190.56;;;5.44
62930;BMP280;49036;42.782;23.108;2023-05-10T04:21:47;94196.59;;;5.50
62930;BMP280;49036;42.782;23.108;2023-05-10T04:24:13;94181.75;;;5.54
62930;BMP280;49036;42.782;23.108;2023-05-10T04:26:38;94186.16;;;5.57
62930;BMP280;49036;42.782;23.108;2023-05-10T04:29:04;94188.53;;;5.60
62930;BMP280;49036;42.782;23.108;2023-05-10T04:31:29;94188.72;;;5.62
62930;BMP280;49036;42.782;23.108;2023-05-10T04:33:55;94194.44;;;5.72
62930;BMP280;49036;42.782;23.108;2023-05-10T04:36:20;94193.38;;;5.83
62930;BMP280;49036;42.782;23.108;2023-05-10T04:38:46;94197.78;;;5.86
62930;BMP280;49036;42.782;23.108;2023-05-10T04:41:11;94196.31;;;5.85
62930;BMP280;49036;42.782;23.108;2023-05-10T04:43:38;94197.03;;;5.85
62930;BMP280;49036;42.782;23.108;2023-05-10T04:46:04;94194.28;;;5.93
62930;BMP280;49036;42.782;23.108;2023-05-10T04:48:30;94199.44;;;5.96
62930;BMP280;49036;42.782;23.108;2023-05-10T04:50:55;94198.69;;;6.03
62930;BMP280;49036;42.782;23.108;2023-05-10T04:53:21;94200.50;;;6.01
62930;BMP280;49036;42.782;23.108;2023-05-10T04:55:47;94200.53;;;6.08
62930;BMP280;49036;42.782;23.108;2023-05-10T04:58:13;94193.91;;;6.11
62930;BMP280;49036;42.782;23.108;2023-05-10T05:00:39;94197.06;;;6.08
62930;BMP280;49036;42.782;23.108;2023-05-10T05:03:04;94208.06;;;6.08
62930;BMP280;49036;42.782;23.108;2023-05-10T05:05:30;94209.34;;;6.07
62930;BMP280;49036;42.782;23.108;2023-05-10T05:07:56;94209.88;;;6.05
62930;BMP280;49036;42.782;23.108;2023-05-10T05:10:21;94207.28;;;6.00
62930;BMP280;49036;42.782;23.108;2023-05-10T05:12:47;94217.03;;;5.93
62930;BMP280;49036;42.782;23.108;2023-05-10T05:15:12;94211.53;;;5.93
62930;BMP280;49036;42.782;23.108;2023-05-10T05:17:38;94205.28;;;6.00
62930;BMP280;49036;42.782;23.108;2023-05-10T05:20:04;94207.13;;;6.05
62930;BMP280;49036;42.782;23.108;2023-05-10T05:22:29;94216.13;;;6.06
62930;BMP280;49036;42.782;23.108;2023-05-10T05:24:55;94209.16;;;6.05
62930;BMP280;49036;42.782;23.108;2023-05-10T05:27:21;94208.06;;;6.16
62930;BMP280;49036;42.782;23.108;2023-05-10T05:29:50;94208.78;;;6.16
62930;BMP280;49036;42.782;23.108;2023-05-10T05:32:16;94213.00;;;6.32
62930;BMP280;49036;42.782;23.108;2023-05-10T05:34:41;94206.56;;;6.37
62930;BMP280;49036;42.782;23.108;2023-05-10T05:37:13;94209.88;;;6.36
62930;BMP280;49036;42.782;23.108;2023-05-10T05:39:38;94210.06;;;6.30
62930;BMP280;49036;42.782;23.108;2023-05-10T05:42:04;94215.94;;;6.34
62930;BMP280;49036;42.782;23.108;2023-05-10T05:44:29;94215.94;;;6.34
62930;BMP280;49036;42.782;23.108;2023-05-10T05:46:55;94222.00;;;6.25
62930;BMP280;49036;42.782;23.108;2023-05-10T05:49:21;94230.25;;;6.25
62930;BMP280;49036;42.782;23.108;2023-05-10T05:51:46;94229.72;;;6.34
62930;BMP280;49036;42.782;23.108;2023-05-10T05:54:12;94232.66;;;6.36
62930;BMP280;49036;42.782;23.108;2023-05-10T05:56:38;94229.00;;;6.42
62930;BMP280;49036;42.782;23.108;2023-05-10T05:59:03;94233.56;;;6.54
62930;BMP280;49036;42.782;23.108;2023-05-10T06:01:29;94229.69;;;6.65
62930;BMP280;49036;42.782;23.108;2023-05-10T06:03:54;94230.03;;;6.77
62930;BMP280;49036;42.782;23.108;2023-05-10T06:06:20;94225.97;;;6.85
62930;BMP280;49036;42.782;23.108;2023-05-10T06:08:45;94234.03;;;6.83
62930;BMP280;49036;42.782;23.108;2023-05-10T06:11:11;94234.38;;;6.95
62930;BMP280;49036;42.782;23.108;2023-05-10T06:13:36;94234.22;;;6.93
62930;BMP280;49036;42.782;23.108;2023-05-10T06:16:02;94234.03;;;6.98
62930;BMP280;49036;42.782;23.108;2023-05-10T06:18:28;94227.78;;;6.98
62930;BMP280;49036;42.782;23.108;2023-05-10T06:20:53;94220.47;;;7.25
62930;BMP280;49036;42.782;23.108;2023-05-10T06:23:18;94222.31;;;7.30
62930;BMP280;49036;42.782;23.108;2023-05-10T06:25:44;94230.34;;;7.44
62930;BMP280;49036;42.782;23.108;2023-05-10T06:28:09;94234.81;;;7.32
62930;BMP280;49036;42.782;23.108;2023-05-10T06:30:36;94235.47;;;7.07
62930;BMP280;49036;42.782;23.108;2023-05-10T06:33:02;94240.09;;;6.97
62930;BMP280;49036;42.782;23.108;2023-05-10T06:35:28;94245.81;;;6.84
62930;BMP280;49036;42.782;23.108;2023-05-10T06:37:53;94254.66;;;6.82
62930;BMP280;49036;42.782;23.108;2023-05-10T06:40:19;94252.44;;;6.81
62930;BMP280;49036;42.782;23.108;2023-05-10T06:42:45;94256.53;;;6.80
62930;BMP280;49036;42.782;23.108;2023-05-10T06:45:12;94257.75;;;6.94
62930;BMP280;49036;42.782;23.108;2023-05-10T06:47:37;94249.09;;;7.05
62930;BMP280;49036;42.782;23.108;2023-05-10T06:50:03;94252.38;;;7.04
62930;BMP280;49036;42.782;23.108;2023-05-10T06:52:29;94255.50;;;7.08
62930;BMP280;49036;42.782;23.108;2023-05-10T06:54:54;94253.44;;;7.16
62930;BMP280;49036;42.782;23.108;2023-05-10T06:57:20;94249.19;;;7.30
62930;BMP280;49036;42.782;23.108;2023-05-10T06:59:46;94246.19;;;7.43
62930;BMP280;49036;42.782;23.108;2023-05-10T07:02:12;94247.81;;;7.46
62930;BMP280;49036;42.782;23.108;2023-05-10T07:04:37;94247.72;;;7.61
62930;BMP280;49036;42.782;23.108;2023-05-10T07:07:03;94245.09;;;7.71
62930;BMP280;49036;42.782;23.108;2023-05-10T07:09:28;94248.03;;;7.73
62930;BMP280;49036;42.782;23.108;2023-05-10T07:11:55;94250.81;;;7.73
62930;BMP280;49036;42.782;23.108;2023-05-10T07:14:21;94246.81;;;7.91
62930;BMP280;49036;42.782;23.108;2023-05-10T07:16:46;94249.72;;;8.01
62930;BMP280;49036;42.782;23.108;2023-05-10T07:19:12;94251.47;;;8.06
62930;BMP280;49036;42.782;23.108;2023-05-10T07:21:37;94253.31;;;8.11
62930;BMP280;49036;42.782;23.108;2023-05-10T07:24:05;94248.69;;;8.14
62930;BMP280;49036;42.782;23.108;2023-05-10T07:26:31;94254.91;;;8.22
62930;BMP280;49036;42.782;23.108;2023-05-10T07:28:56;94252.84;;;8.47
62930;BMP280;49036;42.782;23.108;2023-05-10T07:31:22;94248.88;;;8.75
62930;BMP280;49036;42.782;23.108;2023-05-10T07:33:47;94251.50;;;8.91
62930;BMP280;49036;42.782;23.108;2023-05-10T07:36:13;94251.88;;;9.04
62930;BMP280;49036;42.782;23.108;2023-05-10T07:38:38;94247.22;;;9.07
62930;BMP280;49036;42.782;23.108;2023-05-10T07:41:04;94253.84;;;9.11
62930;BMP280;49036;42.782;23.108;2023-05-10T07:43:30;94261.97;;;9.09
62930;BMP280;49036;42.782;23.108;2023-05-10T07:45:55;94262.63;;;9.00
62930;BMP280;49036;42.782;23.108;2023-05-10T07:48:22;94240.34;;;8.98
62930;BMP280;49036;42.782;23.108;2023-05-10T07:50:48;94257.25;;;9.20
62930;BMP280;49036;42.782;23.108;2023-05-10T07:53:13;94252.38;;;9.10
62930;BMP280;49036;42.782;23.108;2023-05-10T07:55:39;94257.09;;;9.18
62930;BMP280;49036;42.782;23.108;2023-05-10T07:58:05;94257.63;;;9.33
62930;BMP280;49036;42.782;23.108;2023-05-10T08:00:30;94261.31;;;9.19
62930;BMP280;49036;42.782;23.108;2023-05-10T08:02:56;94255.28;;;9.30
62930;BMP280;49036;42.782;23.108;2023-05-10T08:05:22;94256.50;;;9.36
62930;BMP280;49036;42.782;23.108;2023-05-10T08:07:47;94259.75;;;9.42
62930;BMP280;49036;42.782;23.108;2023-05-10T08:10:13;94249.66;;;9.64
62930;BMP280;49036;42.782;23.108;2023-05-10T08:12:38;94256.34;;;9.88
62930;BMP280;49036;42.782;23.108;2023-05-10T08:15:04;94250.09;;;9.97
62930;BMP280;49036;42.782;23.108;2023-05-10T08:17:30;94261.84;;;9.79
62930;BMP280;49036;42.782;23.108;2023-05-10T08:19:55;94252.72;;;9.95
62930;BMP280;49036;42.782;23.108;2023-05-10T08:22:21;94257.34;;;10.20
62930;BMP280;49036;42.782;23.108;2023-05-10T08:24:46;94261.72;;;10.23
62930;BMP280;49036;42.782;23.108;2023-05-10T08:27:12;94259.19;;;10.07
62930;BMP280;49036;42.782;23.108;2023-05-10T08:29:39;94261.88;;;10.34
62930;BMP280;49036;42.782;23.108;2023-05-10T08:32:06;94252.25;;;10.35
62930;BMP280;49036;42.782;23.108;2023-05-10T08:34:32;94252.72;;;9.95
62930;BMP280;49036;42.782;23.108;2023-05-10T08:36:57;94262.84;;;10.10
62930;BMP280;49036;42.782;23.108;2023-05-10T08:39:23;94258.22;;;10.22
62930;BMP280;49036;42.782;23.108;2023-05-10T08:41:51;94253.44;;;10.42
62930;BMP280;49036;42.782;23.108;2023-05-10T08:44:16;94262.25;;;10.58
62930;BMP280;49036;42.782;23.108;2023-05-10T08:46:46;94258.16;;;10.68
62930;BMP280;49036;42.782;23.108;2023-05-10T08:49:15;94258.06;;;10.86
62930;BMP280;49036;42.782;23.108;2023-05-10T08:51:49;94266.38;;;10.86
62930;BMP280;49036;42.782;23.108;2023-05-10T08:54:15;94264.59;;;10.61
62930;BMP280;49036;42.782;23.108;2023-05-10T08:56:41;94267.66;;;10.56
62930;BMP280;49036;42.782;23.108;2023-05-10T08:59:06;94269.09;;;10.47
62930;BMP280;49036;42.782;23.108;2023-05-10T09:01:32;94275.50;;;10.50
62930;BMP280;49036;42.782;23.108;2023-05-10T09:03:58;94265.47;;;10.54
62930;BMP280;49036;42.782;23.108;2023-05-10T09:06:24;94268.38;;;10.56
62930;BMP280;49036;42.782;23.108;2023-05-10T09:08:50;94265.75;;;10.49
62930;BMP280;49036;42.782;23.108;2023-05-10T09:11:15;94258.66;;;10.28
62930;BMP280;49036;42.782;23.108;2023-05-10T09:13:41;94260.06;;;10.56
62930;BMP280;49036;42.782;23.108;2023-05-10T09:16:07;94270.50;;;10.29
62930;BMP280;49036;42.782;23.108;2023-05-10T09:18:32;94265.88;;;10.04
62930;BMP280;49036;42.782;23.108;2023-05-10T09:20:58;94264.94;;;10.19
62930;BMP280;49036;42.782;23.108;2023-05-10T09:23:23;94266.09;;;10.16
62930;BMP280;49036;42.782;23.108;2023-05-10T09:26:07;94259.66;;;10.14
62930;BMP280;49036;42.782;23.108;2023-05-10T09:28:33;94259.41;;;10.29
62930;BMP280;49036;42.782;23.108;2023-05-10T09:30:58;94259.84;;;10.35
62930;BMP280;49036;42.782;23.108;2023-05-10T09:33:24;94257.28;;;10.47
62930;BMP280;49036;42.782;23.108;2023-05-10T09:35:51;94257.88;;;10.64
62930;BMP280;49036;42.782;23.108;2023-05-10T09:38:17;94262.09;;;10.56
62930;BMP280;49036;42.782;23.108;2023-05-10T09:40:51;94252.84;;;10.44
62930;BMP280;49036;42.782;23.108;2023-05-10T09:43:19;94256.69;;;10.48
62930;BMP280;49036;42.782;23.108;2023-05-10T09:45:48;94246.19;;;10.95
62930;BMP280;49036;42.782;23.108;2023-05-10T09:48:15;94252.19;;;11.20
62930;BMP280;49036;42.782;23.108;2023-05-10T09:50:41;94246.44;;;11.38
62930;BMP280;49036;42.782;23.108;2023-05-10T09:53:07;94244.13;;;11.34
62930;BMP280;49036;42.782;23.108;2023-05-10T09:58:01;94248.50;;;11.37
62930;BMP280;49036;42.782;23.108;2023-05-10T10:00:28;94247.19;;;11.38
62930;BMP280;49036;42.782;23.108;2023-05-10T10:02:55;94251.28;;;11.27
62930;BMP280;49036;42.782;23.108;2023-05-10T10:05:28;94242.34;;;11.48
62930;BMP280;49036;42.782;23.108;2023-05-10T10:07:54;94246.16;;;11.33
62930;BMP280;49036;42.782;23.108;2023-05-10T10:10:20;94235.09;;;11.64
62930;BMP280;49036;42.782;23.108;2023-05-10T10:12:46;94231.97;;;11.49
62930;BMP280;49036;42.782;23.108;2023-05-10T10:15:11;94235.09;;;11.74
62930;BMP280;49036;42.782;23.108;2023-05-10T10:17:37;94223.72;;;11.91
62930;BMP280;49036;42.782;23.108;2023-05-10T10:20:05;94228.69;;;12.03
62930;BMP280;49036;42.782;23.108;2023-05-10T10:22:31;94232.88;;;12.13
62930;BMP280;49036;42.782;23.108;2023-05-10T10:24:56;94232.88;;;12.13
62930;BMP280;49036;42.782;23.108;2023-05-10T10:27:28;94233.72;;;11.85
62930;BMP280;49036;42.782;23.108;2023-05-10T10:30:07;94233.09;;;11.96
62930;BMP280;49036;42.782;23.108;2023-05-10T10:35:09;94231.78;;;11.56
62930;BMP280;49036;42.782;23.108;2023-05-10T10:37:46;94233.84;;;11.46
62930;BMP280;49036;42.782;23.108;2023-05-10T10:40:27;94237.84;;;11.43
62930;BMP280;49036;42.782;23.108;2023-05-10T10:42:54;94226.41;;;11.39
62930;BMP280;49036;42.782;23.108;2023-05-10T10:45:20;94231.34;;;11.50
62930;BMP280;49036;42.782;23.108;2023-05-10T10:47:46;94235.16;;;11.86
62930;BMP280;49036;42.782;23.108;2023-05-10T10:50:12;94237.97;;;12.17
62930;BMP280;49036;42.782;23.108;2023-05-10T10:52:45;94237.34;;;11.97
62930;BMP280;49036;42.782;23.108;2023-05-10T10:55:16;94237.03;;;12.03
62930;BMP280;49036;42.782;23.108;2023-05-10T10:57:54;94236.38;;;11.83
62930;BMP280;49036;42.782;23.108;2023-05-10T11:00:30;94231.41;;;12.12
62930;BMP280;49036;42.782;23.108;2023-05-10T11:03:12;94227.22;;;12.02
62930;BMP280;49036;42.782;23.108;2023-05-10T11:05:40;94233.94;;;12.08
62930;BMP280;49036;42.782;23.108;2023-05-10T11:08:30;94223.47;;;12.18
62930;BMP280;49036;42.782;23.108;2023-05-10T11:15:59;94221.47;;;12.94
62930;BMP280;49036;42.782;23.108;2023-05-10T11:18:36;94232.59;;;12.94
62930;BMP280;49036;42.782;23.108;2023-05-10T11:21:02;94217.56;;;12.88
62930;BMP280;49036;42.782;23.108;2023-05-10T11:23:54;94232.41;;;13.14
62930;BMP280;49036;42.782;23.108;2023-05-10T11:26:25;94230.19;;;12.68
62930;BMP280;49036;42.782;23.108;2023-05-10T11:28:53;94231.25;;;12.41
62930;BMP280;49036;42.782;23.108;2023-05-10T11:31:23;94226.53;;;12.22
62930;BMP280;49036;42.782;23.108;2023-05-10T11:33:53;94236.47;;;11.94
62930;BMP280;49036;42.782;23.108;2023-05-10T11:36:23;94232.31;;;11.74
62930;BMP280;49036;42.782;23.108;2023-05-10T11:38:48;94227.00;;;11.78
62930;BMP280;49036;42.782;23.108;2023-05-10T11:41:15;94234.84;;;11.60
62930;BMP280;49036;42.782;23.108;2023-05-10T11:43:42;94226.34;;;11.58
62930;BMP280;49036;42.782;23.108;2023-05-10T11:46:11;94233.44;;;11.50
62930;BMP280;49036;42.782;23.108;2023-05-10T11:48:38;94220.63;;;11.66
62930;BMP280;49036;42.782;23.108;2023-05-10T11:51:04;94229.78;;;11.78
62930;BMP280;49036;42.782;23.108;2023-05-10T11:53:30;94228.28;;;11.96
62930;BMP280;49036;42.782;23.108;2023-05-10T11:56:02;94231.31;;;11.70
62930;BMP280;49036;42.782;23.108;2023-05-10T11:58:28;94222.91;;;11.79
62930;BMP280;49036;42.782;23.108;2023-05-10T12:00:53;94221.44;;;11.78
62930;BMP280;49036;42.782;23.108;2023-05-10T12:03:19;94227.22;;;11.71
62930;BMP280;49036;42.782;23.108;2023-05-10T12:05:44;94223.97;;;11.74
62930;BMP280;49036;42.782;23.108;2023-05-10T12:08:20;94224.41;;;11.80
62930;BMP280;49036;42.782;23.108;2023-05-10T12:10:46;94216.31;;;11.84
62930;BMP280;49036;42.782;23.108;2023-05-10T12:13:11;94219.25;;;11.86
62930;BMP280;49036;42.782;23.108;2023-05-10T12:15:38;94224.53;;;11.73
62930;BMP280;49036;42.782;23.108;2023-05-10T12:18:04;94223.06;;;11.81
62930;BMP280;49036;42.782;23.108;2023-05-10T12:20:30;94226.63;;;12.03
62930;BMP280;49036;42.782;23.108;2023-05-10T12:22:57;94223.00;;;12.22
62930;BMP280;49036;42.782;23.108;2023-05-10T12:25:24;94228.78;;;11.83
62930;BMP280;49036;42.782;23.108;2023-05-10T12:27:57;94227.06;;;11.59
62930;BMP280;49036;42.782;23.108;2023-05-10T12:30:24;94223.63;;;11.39
62930;BMP280;49036;42.782;23.108;2023-05-10T12:32:50;94222.22;;;11.28
62930;BMP280;49036;42.782;23.108;2023-05-10T12:35:16;94216.03;;;11.30
62930;BMP280;49036;42.782;23.108;2023-05-10T12:37:42;94222.63;;;11.34
62930;BMP280;49036;42.782;23.108;2023-05-10T12:40:09;94217.94;;;11.37
62930;BMP280;49036;42.782;23.108;2023-05-10T12:42:36;94214.63;;;11.29
62930;BMP280;49036;42.782;23.108;2023-05-10T12:45:03;94216.78;;;11.21
62930;BMP280;49036;42.782;23.108;2023-05-10T12:47:30;94218.13;;;11.10
62930;BMP280;49036;42.782;23.108;2023-05-10T12:49:55;94210.25;;;10.97
62930;BMP280;49036;42.782;23.108;2023-05-10T12:52:20;94209.25;;;10.92
62930;BMP280;49036;42.782;23.108;2023-05-10T12:54:46;94209.94;;;11.02
62930;BMP280;49036;42.782;23.108;2023-05-10T12:57:12;94204.38;;;11.02
62930;BMP280;49036;42.782;23.108;2023-05-10T12:59:38;94190.78;;;11.16
62930;BMP280;49036;42.782;23.108;2023-05-10T13:02:03;94190.63;;;11.24
62930;BMP280;49036;42.782;23.108;2023-05-10T13:04:29;94186.94;;;11.31
62930;BMP280;49036;42.782;23.108;2023-05-10T13:06:54;94180.16;;;11.44
62930;BMP280;49036;42.782;23.108;2023-05-10T13:09:27;94177.63;;;11.67
62930;BMP280;49036;42.782;23.108;2023-05-10T13:11:54;94168.63;;;11.78
62930;BMP280;49036;42.782;23.108;2023-05-10T13:14:20;94171.56;;;11.80
62930;BMP280;49036;42.782;23.108;2023-05-10T13:17:04;94168.63;;;11.78
62930;BMP280;49036;42.782;23.108;2023-05-10T13:19:30;94174.19;;;11.78
62930;BMP280;49036;42.782;23.108;2023-05-10T13:21:55;94176.03;;;11.64
62930;BMP280;49036;42.782;23.108;2023-05-10T13:24:20;94169.53;;;11.71
62930;BMP280;49036;42.782;23.108;2023-05-10T13:26:46;94180.00;;;11.61
62930;BMP280;49036;42.782;23.108;2023-05-10T13:29:12;94170.16;;;11.60
62930;BMP280;49036;42.782;23.108;2023-05-10T13:31:37;94160.53;;;11.51
62930;BMP280;49036;42.782;23.108;2023-05-10T13:34:06;94163.88;;;11.28
62930;BMP280;49036;42.782;23.108;2023-05-10T13:36:31;94167.69;;;11.14
62930;BMP280;49036;42.782;23.108;2023-05-10T13:38:57;94159.94;;;11.02
62930;BMP280;49036;42.782;23.108;2023-05-10T13:41:22;94162.88;;;11.05
62930;BMP280;49036;42.782;23.108;2023-05-10T13:43:47;94160.38;;;11.09
62930;BMP280;49036;42.782;23.108;2023-05-10T13:46:14;94159.94;;;11.12
62930;BMP280;49036;42.782;23.108;2023-05-10T13:48:39;94162.59;;;11.00
62930;BMP280;49036;42.782;23.108;2023-05-10T13:51:05;94146.09;;;10.93
62930;BMP280;49036;42.782;23.108;2023-05-10T13:53:30;94158.94;;;11.08
62930;BMP280;49036;42.782;23.108;2023-05-10T13:55:55;94156.16;;;11.08
62930;BMP280;49036;42.782;23.108;2023-05-10T13:58:21;94160.72;;;10.93
62930;BMP280;49036;42.782;23.108;2023-05-10T14:00:46;94158.94;;;10.88
62930;BMP280;49036;42.782;23.108;2023-05-10T14:03:12;94154.13;;;10.89
62930;BMP280;49036;42.782;23.108;2023-05-10T14:05:37;94156.00;;;10.96
62930;BMP280;49036;42.782;23.108;2023-05-10T14:08:03;94153.28;;;10.86
62930;BMP280;49036;42.782;23.108;2023-05-10T14:10:29;94160.16;;;10.85
62930;BMP280;49036;42.782;23.108;2023-05-10T14:12:55;94156.91;;;10.89
62930;BMP280;49036;42.782;23.108;2023-05-10T14:15:20;94161.31;;;10.92
62930;BMP280;49036;42.782;23.108;2023-05-10T14:17:46;94161.25;;;11.01
62930;BMP280;49036;42.782;23.108;2023-05-10T14:20:11;94152.66;;;10.88
62930;BMP280;49036;42.782;23.108;2023-05-10T14:22:37;94150.81;;;10.71
62930;BMP280;49036;42.782;23.108;2023-05-10T14:25:02;94154.59;;;10.56
62930;BMP280;49036;42.782;23.108;2023-05-10T14:27:28;94162.50;;;10.41
62930;BMP280;49036;42.782;23.108;2023-05-10T14:29:53;94160.44;;;10.41
62930;BMP280;49036;42.782;23.108;2023-05-10T14:32:19;94158.81;;;10.38
62930;BMP280;49036;42.782;23.108;2023-05-10T14:34:44;94153.69;;;10.34